createdAt,value
2022-10-17T00:01:56.683Z,15.88
2022-10-17T00:04:18.228Z,15.81
2022-10-17T00:06:39.817Z,15.92
2022-10-17T00:09:01.309Z,15.95
2022-10-17T00:11:23.711Z,16.00
2022-10-17T00:13:48.270Z,15.94
2022-10-17T00:16:10.166Z,15.91
2022-10-17T00:18:31.685Z,15.79
2022-10-17T00:20:53.318Z,15.95
2022-10-17T00:23:14.842Z,16.06
2022-10-17T00:25:37.098Z,16.25
2022-10-17T00:27:58.585Z,16.30
2022-10-17T00:30:20.148Z,16.27
2022-10-17T00:32:41.745Z,16.29
2022-10-17T00:35:03.953Z,16.24
2022-10-17T00:37:25.967Z,16.36
2022-10-17T00:39:47.465Z,16.24
2022-10-17T00:42:12.895Z,16.23
2022-10-17T00:44:34.314Z,16.26
2022-10-17T00:47:01.109Z,16.35
2022-10-17T00:49:24.633Z,16.39
2022-10-17T00:51:59.028Z,16.31
2022-10-17T00:54:25.063Z,16.29
2022-10-17T00:56:48.144Z,16.35
2022-10-17T00:59:12.116Z,16.44
2022-10-17T01:01:34.582Z,16.48
2022-10-17T01:03:56.116Z,16.42
2022-10-17T01:06:17.697Z,16.42
2022-10-17T01:08:39.476Z,16.39
2022-10-17T01:11:38.378Z,16.52
2022-10-17T01:14:35.170Z,16.38
2022-10-17T01:17:02.259Z,16.24
2022-10-17T01:19:45.888Z,16.34
2022-10-17T01:22:21.706Z,16.27
2022-10-17T01:24:49.360Z,16.34
2022-10-17T01:27:22.673Z,16.31
2022-10-17T01:29:53.351Z,16.33
2022-10-17T01:32:19.955Z,16.34
2022-10-17T01:34:55.716Z,16.38
2022-10-17T01:37:26.772Z,16.38
2022-10-17T01:39:52.516Z,16.52
2022-10-17T01:42:21.744Z,16.33
2022-10-17T01:45:09.975Z,16.45
2022-10-17T01:47:33.632Z,16.38
2022-10-17T01:50:00.860Z,16.38
2022-10-17T01:52:30.173Z,16.16
2022-10-17T01:54:55.891Z,16.15
2022-10-17T01:57:34.204Z,16.06
2022-10-17T01:59:57.009Z,16.02
2022-10-17T02:02:20.372Z,16.07
2022-10-17T02:04:42.680Z,16.04
2022-10-17T02:07:13.036Z,16.02
2022-10-17T02:09:36.021Z,16.23
2022-10-17T02:12:15.985Z,16.37
2022-10-17T02:14:46.414Z,16.41
2022-10-17T02:17:27.915Z,16.49
2022-10-17T02:19:58.815Z,16.25
2022-10-17T02:22:43.347Z,16.21
2022-10-17T02:25:32.483Z,16.30
2022-10-17T02:28:28.707Z,16.26
2022-10-17T02:30:53.709Z,16.33
2022-10-17T02:33:25.741Z,16.33
2022-10-17T02:35:53.534Z,16.22
2022-10-17T02:38:16.308Z,16.19
2022-10-17T02:40:39.506Z,16.22
2022-10-17T02:43:01.182Z,16.24
2022-10-17T02:45:24.710Z,15.91
2022-10-17T02:48:04.132Z,15.96
2022-10-17T02:50:39.039Z,15.87
2022-10-17T02:53:09.142Z,15.87
2022-10-17T02:55:36.685Z,15.91
2022-10-17T02:58:04.027Z,15.90
2022-10-17T03:00:28.464Z,15.61
2022-10-17T03:02:53.241Z,15.60
2022-10-17T03:05:19.342Z,15.63
2022-10-17T03:07:40.847Z,15.67
2022-10-17T03:10:02.327Z,15.75
2022-10-17T03:12:23.847Z,15.59
2022-10-17T03:14:45.371Z,15.50
2022-10-17T03:17:06.839Z,15.43
2022-10-17T03:19:28.332Z,15.42
2022-10-17T03:21:50.034Z,15.39
2022-10-17T03:24:11.734Z,15.37
2022-10-17T03:26:33.345Z,15.36
2022-10-17T03:28:55.339Z,15.28
2022-10-17T03:31:17.687Z,15.42
2022-10-17T03:33:39.224Z,15.43
2022-10-17T03:36:05.543Z,15.49
2022-10-17T03:38:27.034Z,15.66
2022-10-17T03:40:55.333Z,15.57
2022-10-17T03:43:16.820Z,15.57
2022-10-17T03:45:38.274Z,15.50
2022-10-17T03:48:00.228Z,15.47
2022-10-17T03:50:21.698Z,15.56
2022-10-17T03:52:47.299Z,15.47
2022-10-17T03:55:09.028Z,15.50
2022-10-17T03:57:30.756Z,15.61
2022-10-17T03:59:52.583Z,15.50
2022-10-17T04:02:14.081Z,15.46
2022-10-17T04:04:35.668Z,15.41
2022-10-17T04:06:57.214Z,15.48
2022-10-17T04:09:18.739Z,15.50
2022-10-17T04:11:40.241Z,15.44
2022-10-17T04:14:01.795Z,15.62
2022-10-17T04:16:24.126Z,15.42
2022-10-17T04:18:45.727Z,15.38
2022-10-17T04:21:08.022Z,15.39
2022-10-17T04:23:29.613Z,15.49
2022-10-17T04:25:55.391Z,15.54
2022-10-17T04:28:16.939Z,15.57
2022-10-17T04:30:41.155Z,15.50
2022-10-17T04:33:05.138Z,15.46
2022-10-17T04:35:26.626Z,15.38
2022-10-17T04:37:48.102Z,15.49
2022-10-17T04:40:10.211Z,15.54
2022-10-17T04:42:32.078Z,15.47
2022-10-17T04:44:53.788Z,15.52
2022-10-17T04:47:15.347Z,15.56
2022-10-17T04:49:36.899Z,15.54
2022-10-17T04:51:58.411Z,15.64
2022-10-17T04:54:19.912Z,15.61
2022-10-17T04:56:41.430Z,15.78
2022-10-17T04:59:02.923Z,15.67
2022-10-17T05:01:24.523Z,15.75
2022-10-17T05:03:46.478Z,15.69
2022-10-17T05:06:10.677Z,15.81
2022-10-17T05:08:32.197Z,15.82
2022-10-17T05:10:53.697Z,15.88
2022-10-17T05:13:15.983Z,15.82
2022-10-17T05:15:38.294Z,15.84
2022-10-17T05:17:59.838Z,15.95
2022-10-17T05:20:21.454Z,15.99
2022-10-17T05:22:42.979Z,16.01
2022-10-17T05:25:04.807Z,15.74
2022-10-17T05:27:26.468Z,15.73
2022-10-17T05:29:48.038Z,15.80
2022-10-17T05:32:09.570Z,15.80
2022-10-17T05:34:31.052Z,15.72
2022-10-17T05:36:52.721Z,15.74
2022-10-17T05:39:14.910Z,15.76
2022-10-17T05:41:36.491Z,15.80
2022-10-17T05:43:59.470Z,15.87
2022-10-17T05:46:24.839Z,15.76
2022-10-17T05:48:46.349Z,15.83
2022-10-17T05:51:09.546Z,15.84
2022-10-17T05:53:32.790Z,15.80
2022-10-17T05:56:02.259Z,15.91
2022-10-17T05:58:38.700Z,16.13
2022-10-17T06:01:08.234Z,16.03
2022-10-17T06:03:33.203Z,16.10
2022-10-17T06:05:54.879Z,16.22
2022-10-17T06:08:16.969Z,16.19
2022-10-17T06:10:38.770Z,16.38
2022-10-17T06:13:00.236Z,16.43
2022-10-17T06:15:21.727Z,16.35
2022-10-17T06:17:43.207Z,16.42
2022-10-17T06:20:05.296Z,16.50
2022-10-17T06:22:27.134Z,16.54
2022-10-17T06:24:48.871Z,16.50
2022-10-17T06:27:12.113Z,16.56
2022-10-17T06:29:34.135Z,16.55
2022-10-17T06:31:55.977Z,16.50
2022-10-17T06:34:17.677Z,16.60
2022-10-17T06:36:39.177Z,16.62
2022-10-17T06:39:00.764Z,16.61
2022-10-17T06:41:22.270Z,16.70
2022-10-17T06:43:47.617Z,16.65
2022-10-17T06:46:09.544Z,16.75
2022-10-17T06:48:31.099Z,16.87
2022-10-17T06:50:52.574Z,16.91
2022-10-17T06:53:14.046Z,17.04
2022-10-17T06:55:35.528Z,17.13
2022-10-17T06:57:56.992Z,17.20
2022-10-17T07:00:18.616Z,17.11
2022-10-17T07:02:40.211Z,17.10
2022-10-17T07:05:01.697Z,17.17
2022-10-17T07:07:23.251Z,17.29
2022-10-17T07:09:44.787Z,17.20
2022-10-17T07:12:08.391Z,17.26
2022-10-17T07:14:32.173Z,17.27
2022-10-17T07:16:53.778Z,17.49
2022-10-17T07:19:15.648Z,17.46
2022-10-17T07:21:39.153Z,17.54
2022-10-17T07:24:00.961Z,17.44
2022-10-17T07:26:22.523Z,17.56
2022-10-17T07:28:46.179Z,17.43
2022-10-17T07:31:11.347Z,17.41
2022-10-17T07:33:33.001Z,17.44
2022-10-17T07:35:54.523Z,17.45
2022-10-17T07:38:16.033Z,17.43
2022-10-17T07:40:37.609Z,17.53
2022-10-17T07:42:59.051Z,17.43
2022-10-17T07:45:20.571Z,17.57
2022-10-17T07:47:42.731Z,17.81
2022-10-17T07:50:05.524Z,17.87
2022-10-17T07:52:27.161Z,17.97
2022-10-17T07:54:48.834Z,17.99
2022-10-17T07:57:10.601Z,18.14
2022-10-17T07:59:35.554Z,18.16
2022-10-17T08:01:57.442Z,18.31
2022-10-17T08:04:18.995Z,18.39
2022-10-17T08:06:40.497Z,18.30
2022-10-17T08:09:02.219Z,18.39
2022-10-17T08:11:25.366Z,18.38
2022-10-17T08:13:46.817Z,18.46
2022-10-17T08:16:11.300Z,18.56
2022-10-17T08:18:33.416Z,18.80
2022-10-17T08:20:57.999Z,18.98
2022-10-17T08:23:21.637Z,19.10
2022-10-17T08:25:43.143Z,19.32
2022-10-17T08:28:04.939Z,19.39
2022-10-17T08:30:26.495Z,19.76
2022-10-17T08:32:47.948Z,19.92
2022-10-17T08:35:09.830Z,20.06
2022-10-17T08:37:32.748Z,20.25
2022-10-17T08:39:54.499Z,20.27
2022-10-17T08:42:25.112Z,20.46
2022-10-17T08:45:17.004Z,20.65
2022-10-17T08:47:42.512Z,20.68
2022-10-17T08:50:06.899Z,20.65
2022-10-17T08:52:49.319Z,20.88
2022-10-17T08:55:17.176Z,20.76
2022-10-17T08:57:38.654Z,20.91
2022-10-17T09:00:00.316Z,20.84
2022-10-17T09:02:50.149Z,20.90
2022-10-17T09:05:26.815Z,20.89
2022-10-17T09:07:51.699Z,20.86
2022-10-17T09:10:27.271Z,20.87
2022-10-17T09:13:06.891Z,20.96
2022-10-17T09:15:43.091Z,20.92
2022-10-17T09:19:02.459Z,20.88
2022-10-17T09:21:44.331Z,20.81
2022-10-17T09:24:16.255Z,20.80
2022-10-17T09:26:41.905Z,20.81
2022-10-17T09:29:10.896Z,20.81
2022-10-17T09:31:42.348Z,20.89
2022-10-17T09:34:03.853Z,21.03
2022-10-17T09:36:34.424Z,20.97
2022-10-17T09:39:01.835Z,21.06
2022-10-17T09:41:46.542Z,20.96
2022-10-17T09:44:31.755Z,21.04
2022-10-17T09:47:01.586Z,21.27
2022-10-17T09:49:32.689Z,21.38
2022-10-17T09:51:54.230Z,21.47
2022-10-17T09:54:26.690Z,21.58
2022-10-17T09:57:18.774Z,21.70
2022-10-17T09:59:43.019Z,21.79
2022-10-17T10:02:19.207Z,21.88
2022-10-17T10:05:16.189Z,22.04
2022-10-17T10:07:39.158Z,22.11
2022-10-17T10:10:02.965Z,22.12
2022-10-17T10:12:28.857Z,22.08
2022-10-17T10:14:54.610Z,22.30
2022-10-17T10:17:42.013Z,22.31
2022-10-17T10:20:37.619Z,22.48
2022-10-17T10:23:05.903Z,22.43
2022-10-17T10:25:27.385Z,22.39
2022-10-17T10:27:48.894Z,22.53
2022-10-17T10:30:19.373Z,22.46
2022-10-17T10:32:40.926Z,22.56
2022-10-17T10:35:23.106Z,22.58
2022-10-17T10:37:48.929Z,22.58
2022-10-17T10:40:37.371Z,22.65
2022-10-17T10:43:05.145Z,22.81
2022-10-17T10:45:48.093Z,22.69
2022-10-17T10:48:23.861Z,22.77
2022-10-17T10:50:49.742Z,22.99
2022-10-17T10:53:19.989Z,22.90
2022-10-17T10:56:13.429Z,22.93
2022-10-17T10:58:43.027Z,23.08
2022-10-17T11:01:13.340Z,23.01
2022-10-17T11:03:41.992Z,22.92
2022-10-17T11:06:14.389Z,23.13
2022-10-17T11:08:45.777Z,23.12
2022-10-17T11:11:23.788Z,23.36
2022-10-17T11:13:57.563Z,23.27
2022-10-17T11:16:38.094Z,23.35
2022-10-17T11:19:21.166Z,23.49
2022-10-17T11:21:52.837Z,23.62
2022-10-17T11:24:40.821Z,23.49
2022-10-17T11:27:05.737Z,23.60
2022-10-17T11:29:33.400Z,23.60
2022-10-17T11:31:58.324Z,23.68
2022-10-17T11:34:25.938Z,23.78
2022-10-17T11:36:57.055Z,23.95
2022-10-17T11:39:26.930Z,23.99
2022-10-17T11:41:55.434Z,24.00
2022-10-17T11:44:40.149Z,24.19
2022-10-17T11:47:13.016Z,24.17
2022-10-17T11:49:40.995Z,24.26
2022-10-17T11:52:55.471Z,24.34
2022-10-17T11:55:22.805Z,24.33
2022-10-17T11:58:22.864Z,24.36
2022-10-17T12:00:51.661Z,24.42
2022-10-17T12:03:52.559Z,24.54
2022-10-17T12:06:39.259Z,24.73
2022-10-17T12:09:15.704Z,24.73
2022-10-17T12:11:57.169Z,24.98
2022-10-17T12:14:33.677Z,24.93
2022-10-17T12:16:55.230Z,25.18
2022-10-17T12:19:24.439Z,25.32
2022-10-17T12:22:17.806Z,25.39
2022-10-17T12:24:45.004Z,25.46
2022-10-17T12:27:43.828Z,25.48
2022-10-17T12:30:27.602Z,25.35
2022-10-17T12:33:06.589Z,25.39
2022-10-17T12:35:30.712Z,25.39
2022-10-17T12:37:55.169Z,25.45
2022-10-17T12:40:37.022Z,25.35
2022-10-17T12:42:58.516Z,25.47
2022-10-17T12:45:46.980Z,25.27
2022-10-17T12:48:11.264Z,25.22
2022-10-17T12:54:02.636Z,25.25
2022-10-17T12:56:44.922Z,25.16
2022-10-17T12:59:13.546Z,25.26
2022-10-17T13:01:39.777Z,25.15
2022-10-17T13:04:08.423Z,25.01
2022-10-17T13:06:37.705Z,24.76
2022-10-17T13:09:05.901Z,24.59
2022-10-17T13:11:30.101Z,24.46
2022-10-17T13:13:54.587Z,24.74
2022-10-17T13:16:30.831Z,24.73
2022-10-17T13:18:53.568Z,24.78
2022-10-17T13:21:16.808Z,24.68
2022-10-17T13:23:38.280Z,24.62
2022-10-17T13:26:18.172Z,24.48
2022-10-17T13:28:39.988Z,24.65
2022-10-17T13:31:01.590Z,24.54
2022-10-17T13:33:34.287Z,24.66
2022-10-17T13:36:00.554Z,24.75
2022-10-17T13:38:27.417Z,24.82
2022-10-17T13:40:50.347Z,24.83
2022-10-17T13:43:17.164Z,24.83
2022-10-17T13:45:38.865Z,24.91
2022-10-17T13:48:04.240Z,24.84
2022-10-17T13:50:43.676Z,24.95
2022-10-17T13:53:16.313Z,24.95
2022-10-17T13:55:37.907Z,24.99
2022-10-17T13:58:19.649Z,25.02
2022-10-17T14:00:41.471Z,25.12
2022-10-17T14:03:04.337Z,25.15
2022-10-17T14:05:25.965Z,25.26
2022-10-17T14:08:22.043Z,25.41
2022-10-17T14:10:44.774Z,25.43
2022-10-17T14:13:15.027Z,25.37
2022-10-17T14:15:37.282Z,25.30
2022-10-17T14:18:08.477Z,25.34
2022-10-17T14:23:32.202Z,25.04
2022-10-17T14:26:12.158Z,24.97
2022-10-17T14:28:34.506Z,25.03
2022-10-17T14:31:11.728Z,24.95
2022-10-17T14:33:34.558Z,25.09
2022-10-17T14:36:00.901Z,24.95
2022-10-17T14:38:23.468Z,24.99
2022-10-17T14:41:30.536Z,25.08
2022-10-17T14:43:44.088Z,25.27
2022-10-17T14:46:05.826Z,25.13
2022-10-17T14:48:31.440Z,25.06
2022-10-17T14:51:16.086Z,25.02
2022-10-17T14:53:38.700Z,25.14
2022-10-17T14:56:03.548Z,25.02
2022-10-17T14:58:27.947Z,25.14
2022-10-17T15:00:49.563Z,25.12
2022-10-17T15:03:11.098Z,24.94
2022-10-17T15:05:34.370Z,25.05
2022-10-17T15:07:55.840Z,24.97
2022-10-17T15:10:25.260Z,24.94
2022-10-17T15:12:52.159Z,24.88
2022-10-17T15:15:21.487Z,24.71
2022-10-17T15:20:14.263Z,24.59
2022-10-17T15:22:36.599Z,24.54
2022-10-17T15:24:58.129Z,24.51
2022-10-17T15:27:22.379Z,24.55
2022-10-17T15:29:44.648Z,24.74
2022-10-17T15:32:06.098Z,24.67
2022-10-17T15:34:27.585Z,24.72
2022-10-17T15:36:51.686Z,24.87
2022-10-17T15:39:13.212Z,24.94
2022-10-17T15:41:34.748Z,24.80
2022-10-17T15:43:56.915Z,24.70
2022-10-17T15:46:22.737Z,24.81
2022-10-17T15:48:44.509Z,24.83
2022-10-17T15:51:06.095Z,24.89
2022-10-17T15:53:27.651Z,24.77
2022-10-17T15:55:50.993Z,24.77
2022-10-17T15:58:16.473Z,24.57
2022-10-17T16:00:38.032Z,24.54
2022-10-17T16:03:00.528Z,24.32
2022-10-17T16:05:26.108Z,24.24
2022-10-17T16:07:48.364Z,24.19
2022-10-17T16:10:10.287Z,24.11
2022-10-17T16:12:36.896Z,24.00
2022-10-17T16:14:58.464Z,23.87
2022-10-17T16:17:20.121Z,23.71
2022-10-17T16:19:42.611Z,23.57
2022-10-17T16:22:06.215Z,23.53
2022-10-17T16:24:27.744Z,23.51
2022-10-17T16:26:49.389Z,23.47
2022-10-17T16:29:11.061Z,23.25
2022-10-17T16:31:35.263Z,23.18
2022-10-17T16:33:58.468Z,22.90
2022-10-17T16:36:20.486Z,22.79
2022-10-17T16:38:42.062Z,22.62
2022-10-17T16:41:04.374Z,22.61
2022-10-17T16:43:25.885Z,22.40
2022-10-17T16:45:47.412Z,22.33
2022-10-17T16:48:09.765Z,22.02
2022-10-17T16:50:35.316Z,21.94
2022-10-17T16:52:56.884Z,21.85
2022-10-17T16:55:19.003Z,21.76
2022-10-17T17:00:12.037Z,21.54
2022-10-17T17:02:33.871Z,21.22
2022-10-17T17:04:55.618Z,21.16
2022-10-17T17:07:19.327Z,21.11
2022-10-17T17:09:40.801Z,21.14
2022-10-17T17:12:02.565Z,21.09
2022-10-17T17:14:24.073Z,21.04
2022-10-17T17:16:45.552Z,21.00
2022-10-17T17:19:10.591Z,20.97
2022-10-17T17:21:33.267Z,20.89
2022-10-17T17:23:58.864Z,20.78
2022-10-17T17:26:22.812Z,20.71
2022-10-17T17:28:44.809Z,20.59
2022-10-17T17:31:12.507Z,20.55
2022-10-17T17:33:34.427Z,20.39
2022-10-17T17:35:58.097Z,20.37
2022-10-17T17:38:19.604Z,20.14
2022-10-17T17:40:50.358Z,20.16
2022-10-17T17:43:12.859Z,20.07
2022-10-17T17:45:34.764Z,20.12
2022-10-17T17:47:56.352Z,19.95
2022-10-17T17:50:17.843Z,19.86
2022-10-17T17:52:41.949Z,19.84
2022-10-17T17:55:03.594Z,19.73
2022-10-17T17:57:25.082Z,19.54
2022-10-17T17:59:48.514Z,19.67
2022-10-17T18:02:11.208Z,19.58
2022-10-17T18:04:32.855Z,19.69
2022-10-17T18:06:54.339Z,19.62
2022-10-17T18:09:15.839Z,19.54
2022-10-17T18:11:37.877Z,19.52
2022-10-17T18:14:01.902Z,19.46
2022-10-17T18:16:24.133Z,19.43
2022-10-17T18:18:45.656Z,19.39
2022-10-17T18:21:08.187Z,19.25
2022-10-17T18:23:29.719Z,19.25
2022-10-17T18:26:00.757Z,19.25
2022-10-17T18:28:22.684Z,19.10
2022-10-17T18:30:44.226Z,18.93
2022-10-17T18:33:05.773Z,19.01
2022-10-17T18:35:27.274Z,18.80
2022-10-17T18:37:49.969Z,18.83
2022-10-17T18:40:11.806Z,18.99
2022-10-17T18:42:33.488Z,18.98
2022-10-17T18:44:54.996Z,19.01
2022-10-17T18:47:16.489Z,18.95
2022-10-17T18:49:38.000Z,18.99
2022-10-17T18:51:59.835Z,18.96
2022-10-17T18:54:22.153Z,19.04
2022-10-17T18:56:45.003Z,18.89
2022-10-17T18:59:06.724Z,18.93
2022-10-17T19:01:28.328Z,18.95
2022-10-17T19:03:52.364Z,18.79
2022-10-17T19:06:16.844Z,18.71
2022-10-17T19:08:39.584Z,18.70
2022-10-17T19:11:21.902Z,18.72
2022-10-17T19:16:14.196Z,18.45
2022-10-17T19:18:36.967Z,18.53
2022-10-17T19:21:03.543Z,18.38
2022-10-17T19:23:25.030Z,18.37
2022-10-17T19:25:46.587Z,18.19
2022-10-17T19:28:08.077Z,18.12
2022-10-17T19:30:29.594Z,18.03
2022-10-17T19:32:51.112Z,17.99
2022-10-17T19:35:12.645Z,18.10
2022-10-17T19:37:34.445Z,18.02
2022-10-17T19:39:55.932Z,17.95
2022-10-17T19:42:17.416Z,18.07
2022-10-17T19:44:38.927Z,18.06
2022-10-17T19:47:00.410Z,17.97
2022-10-17T19:49:21.892Z,17.99
2022-10-17T19:51:44.120Z,17.93
2022-10-17T19:54:05.612Z,17.88
2022-10-17T19:56:28.833Z,17.72
2022-10-17T19:58:51.048Z,17.74
2022-10-17T20:01:15.852Z,17.70
2022-10-17T20:03:38.067Z,17.73
2022-10-17T20:05:59.556Z,17.56
2022-10-17T20:08:21.428Z,17.67
2022-10-17T20:10:43.372Z,17.46
2022-10-17T20:13:04.912Z,17.54
2022-10-17T20:15:26.485Z,17.51
2022-10-17T20:17:48.007Z,17.48
2022-10-17T20:20:09.980Z,17.49
2022-10-17T20:22:31.648Z,17.50
2022-10-17T20:24:53.354Z,17.52
2022-10-17T20:27:14.882Z,17.46
2022-10-17T20:29:36.378Z,17.35
2022-10-17T20:31:57.934Z,17.38
2022-10-17T20:34:19.796Z,17.22
2022-10-17T20:36:41.837Z,17.29
2022-10-17T20:39:03.619Z,17.23
2022-10-17T20:41:26.392Z,17.20
2022-10-17T20:43:50.658Z,17.28
2022-10-17T20:46:29.352Z,17.07
2022-10-17T20:48:58.436Z,17.07
2022-10-17T20:51:21.346Z,17.16
2022-10-17T20:53:42.815Z,17.10
2022-10-17T20:56:07.521Z,17.14
2022-10-17T20:58:29.029Z,16.98
2022-10-17T21:00:50.510Z,16.99
2022-10-17T21:03:11.992Z,17.02
2022-10-17T21:05:41.333Z,16.92
2022-10-17T21:08:02.796Z,17.01
2022-10-17T21:10:35.015Z,17.03
2022-10-17T21:12:57.338Z,16.88
2022-10-17T21:15:18.965Z,16.84
2022-10-17T21:17:40.521Z,16.91
2022-10-17T21:20:02.101Z,16.97
2022-10-17T21:22:23.640Z,16.80
2022-10-17T21:24:45.116Z,16.90
2022-10-17T21:27:13.114Z,16.81
2022-10-17T21:29:34.597Z,16.97
2022-10-17T21:31:56.178Z,16.55
2022-10-17T21:34:26.483Z,16.50
2022-10-17T21:36:48.582Z,16.49
2022-10-17T21:39:11.666Z,16.65
2022-10-17T21:41:33.516Z,16.55
2022-10-17T21:43:57.483Z,16.69
2022-10-17T21:46:20.271Z,16.73
2022-10-17T21:48:42.253Z,16.77
2022-10-17T21:51:08.294Z,16.80
2022-10-17T21:53:30.199Z,16.90
2022-10-17T21:55:52.420Z,16.86
2022-10-17T21:58:13.948Z,16.92
2022-10-17T22:00:35.515Z,16.89
2022-10-17T22:02:56.984Z,16.96
2022-10-17T22:05:18.467Z,16.90
2022-10-17T22:07:39.930Z,17.00
2022-10-17T22:10:02.619Z,17.04
2022-10-17T22:12:24.092Z,17.04
2022-10-17T22:14:45.646Z,17.01
2022-10-17T22:17:07.131Z,17.03
2022-10-17T22:19:28.612Z,17.01
2022-10-17T22:21:50.571Z,17.03
2022-10-17T22:24:14.545Z,17.02
2022-10-17T22:26:37.545Z,17.08
2022-10-17T22:28:59.704Z,16.98
2022-10-17T22:31:21.423Z,17.03
2022-10-17T22:33:42.916Z,16.95
2022-10-17T22:36:05.285Z,17.02
2022-10-17T22:38:26.993Z,17.04
2022-10-17T22:40:48.503Z,17.08
2022-10-17T22:43:09.962Z,16.97
2022-10-17T22:45:31.744Z,16.94
2022-10-17T22:47:54.058Z,16.96
2022-10-17T22:50:15.635Z,17.01
2022-10-17T22:52:37.198Z,17.03
2022-10-17T22:54:58.725Z,16.89
2022-10-17T22:57:20.217Z,16.81
2022-10-17T22:59:41.724Z,16.92
2022-10-17T23:02:03.228Z,16.89
2022-10-17T23:04:24.795Z,16.97
2022-10-17T23:06:46.283Z,17.02
2022-10-17T23:09:07.776Z,17.08
2022-10-17T23:11:29.305Z,17.04
2022-10-17T23:13:50.824Z,17.07
2022-10-17T23:16:12.534Z,17.09
2022-10-17T23:18:34.049Z,17.08
2022-10-17T23:20:55.975Z,17.12
2022-10-17T23:23:17.750Z,17.18
2022-10-17T23:25:39.964Z,17.16
2022-10-17T23:28:01.986Z,17.19
2022-10-17T23:30:23.540Z,17.19
2022-10-17T23:32:44.974Z,17.21
2022-10-17T23:35:07.350Z,17.26
2022-10-17T23:37:29.156Z,17.28
2022-10-17T23:39:50.885Z,17.32
2022-10-17T23:42:12.338Z,17.32
2022-10-17T23:44:33.821Z,17.30
2022-10-17T23:46:55.280Z,17.36
2022-10-17T23:49:16.764Z,17.41
2022-10-17T23:51:38.232Z,17.43
2022-10-17T23:53:59.723Z,17.43
2022-10-17T23:56:21.311Z,17.40
2022-10-17T23:58:42.885Z,17.41
